createdAt,value
2019-06-01T00:00:11.946Z,16.20
2019-06-01T00:02:38.689Z,16.10
2019-06-01T00:05:07.558Z,15.90
2019-06-01T00:07:36.285Z,16.50
2019-06-01T00:10:08.437Z,16.20
2019-06-01T00:12:37.051Z,15.90
2019-06-01T00:15:06.688Z,15.50
2019-06-01T00:17:35.372Z,16.00
2019-06-01T00:20:05.011Z,15.60
2019-06-01T00:22:33.571Z,15.90
2019-06-01T00:25:02.142Z,16.20
2019-06-01T00:27:30.826Z,16.10
2019-06-01T00:29:59.329Z,16.30
2019-06-01T00:32:27.952Z,16.00
2019-06-01T00:34:56.503Z,15.90
2019-06-01T00:37:25.126Z,15.70
2019-06-01T00:39:53.659Z,16.10
2019-06-01T00:42:22.288Z,16.30
2019-06-01T00:44:50.917Z,16.20
2019-06-01T00:47:19.675Z,16.20
2019-06-01T00:49:48.853Z,16.10
2019-06-01T00:52:17.568Z,16.20
2019-06-01T00:54:47.255Z,16.40
2019-06-01T00:57:16.055Z,16.60
2019-06-01T00:59:45.910Z,16.60
2019-06-01T01:02:14.617Z,16.90
2019-06-01T01:04:44.299Z,17.40
2019-06-01T01:07:13.066Z,17.50
2019-06-01T01:09:41.633Z,17.90
2019-06-01T01:12:10.274Z,17.80
2019-06-01T01:14:38.850Z,17.80
2019-06-01T01:17:07.396Z,17.50
2019-06-01T01:19:35.948Z,17.10
2019-06-01T01:22:05.832Z,17.10
2019-06-01T01:24:34.380Z,17.30
2019-06-01T01:27:02.863Z,17.20
2019-06-01T01:29:31.396Z,17.10
2019-06-01T01:31:59.971Z,17.30
2019-06-01T01:34:28.566Z,16.40
2019-06-01T01:36:58.099Z,16.40
2019-06-01T01:39:26.715Z,16.20
2019-06-01T01:41:56.255Z,16.20
2019-06-01T01:44:24.927Z,15.70
2019-06-01T01:46:53.403Z,15.40
2019-06-01T01:49:22.073Z,15.60
2019-06-01T01:51:50.651Z,15.60
2019-06-01T01:54:19.489Z,15.50
2019-06-01T01:56:48.031Z,15.80
2019-06-01T01:59:16.608Z,15.50
2019-06-01T02:01:45.147Z,15.60
2019-06-01T02:04:13.702Z,15.50
2019-06-01T02:06:42.380Z,15.80
2019-06-01T02:09:10.939Z,15.80
2019-06-01T02:11:41.300Z,16.20
2019-06-01T02:14:09.882Z,16.30
2019-06-01T02:16:38.632Z,16.30
2019-06-01T02:19:07.425Z,16.00
2019-06-01T02:21:36.010Z,16.60
2019-06-01T02:24:04.838Z,16.30
2019-06-01T02:26:33.448Z,16.10
2019-06-01T02:29:02.991Z,15.90
2019-06-01T02:31:41.719Z,15.80
2019-06-01T02:34:03.955Z,16.00
2019-06-01T02:36:32.810Z,15.80
2019-06-01T02:39:03.106Z,15.50
2019-06-01T02:41:31.505Z,16.00
2019-06-01T02:44:01.629Z,16.20
2019-06-01T02:46:30.346Z,16.20
2019-06-01T02:48:59.817Z,15.70
2019-06-01T02:51:28.868Z,16.30
2019-06-01T02:53:57.667Z,16.50
2019-06-01T02:56:26.362Z,16.50
2019-06-01T02:58:56.034Z,16.40
2019-06-01T03:01:36.599Z,16.40
2019-06-01T03:04:10.090Z,17.10
2019-06-01T03:06:41.045Z,17.30
2019-06-01T03:09:10.510Z,17.20
2019-06-01T03:11:40.508Z,16.40
2019-06-01T03:14:10.740Z,16.10
2019-06-01T03:16:41.599Z,16.40
2019-06-01T03:19:10.395Z,16.20
2019-06-01T03:21:39.108Z,16.10
2019-06-01T03:24:10.726Z,15.60
2019-06-01T03:26:42.460Z,15.60
2019-06-01T03:29:16.912Z,15.60
2019-06-01T03:31:46.133Z,15.70
2019-06-01T03:34:14.827Z,15.60
2019-06-01T03:36:44.083Z,15.30
2019-06-01T03:39:13.082Z,15.40
2019-06-01T03:41:42.180Z,15.70
2019-06-01T03:44:10.787Z,15.60
2019-06-01T03:46:39.351Z,15.90
2019-06-01T03:49:07.973Z,15.60
2019-06-01T03:51:36.520Z,15.60
2019-06-01T03:54:06.883Z,15.70
2019-06-01T03:56:35.563Z,15.50
2019-06-01T03:59:05.096Z,15.00
2019-06-01T04:01:33.915Z,15.30
2019-06-01T04:04:03.065Z,15.00
2019-06-01T04:06:31.826Z,14.70
2019-06-01T04:09:01.564Z,14.70
2019-06-01T04:11:30.269Z,14.90
2019-06-01T04:13:58.882Z,15.20
2019-06-01T04:16:27.446Z,15.60
2019-06-01T04:18:55.909Z,15.30
2019-06-01T04:21:24.449Z,15.40
2019-06-01T04:23:52.951Z,15.10
2019-06-01T04:26:21.572Z,15.30
2019-06-01T04:28:50.235Z,15.10
2019-06-01T04:31:18.963Z,15.10
2019-06-01T04:33:47.911Z,14.80
2019-06-01T04:36:16.620Z,15.30
2019-06-01T04:38:45.206Z,15.30
2019-06-01T04:41:14.768Z,15.30
2019-06-01T04:43:43.383Z,15.10
2019-06-01T04:46:12.335Z,14.80
2019-06-01T04:48:41.176Z,14.60
2019-06-01T04:51:11.693Z,14.70
2019-06-01T04:53:39.968Z,14.70
2019-06-01T04:56:09.045Z,14.90
2019-06-01T04:58:37.770Z,14.70
2019-06-01T05:01:06.904Z,14.90
2019-06-01T05:03:35.614Z,15.10
2019-06-01T05:06:05.063Z,15.10
2019-06-01T05:08:33.766Z,15.00
2019-06-01T05:11:05.383Z,15.00
2019-06-01T05:13:32.835Z,15.20
2019-06-01T05:16:01.425Z,15.60
2019-06-01T05:18:29.983Z,15.40
2019-06-01T05:20:58.617Z,15.50
2019-06-01T05:23:27.625Z,16.40
2019-06-01T05:25:56.247Z,16.20
2019-06-01T05:28:24.877Z,16.50
2019-06-01T05:30:53.450Z,17.00
2019-06-01T05:33:36.489Z,17.20
2019-06-01T05:35:52.419Z,17.70
2019-06-01T05:38:20.998Z,17.90
2019-06-01T05:40:49.624Z,17.80
2019-06-01T05:43:19.915Z,17.80
2019-06-01T05:45:48.427Z,17.50
2019-06-01T05:48:24.616Z,17.80
2019-06-01T05:50:47.222Z,17.20
2019-06-01T05:53:16.741Z,17.60
2019-06-01T05:55:45.471Z,18.50
2019-06-01T05:58:15.119Z,18.60
2019-06-01T06:00:44.209Z,19.10
2019-06-01T06:03:15.408Z,18.60
2019-06-01T06:05:43.081Z,18.30
2019-06-01T06:08:12.829Z,18.50
2019-06-01T06:10:42.012Z,19.00
2019-06-01T06:13:11.096Z,18.90
2019-06-01T06:15:39.984Z,19.50
2019-06-01T06:18:08.531Z,19.80
2019-06-01T06:20:37.184Z,19.50
2019-06-01T06:23:05.773Z,19.70
2019-06-01T06:25:37.681Z,20.00
2019-06-01T06:28:04.794Z,19.90
2019-06-01T06:30:33.462Z,20.20
2019-06-01T06:33:02.359Z,20.10
2019-06-01T06:35:30.986Z,20.10
2019-06-01T06:37:59.517Z,20.10
2019-06-01T06:40:28.192Z,19.50
2019-06-01T06:42:56.764Z,19.30
2019-06-01T06:45:25.446Z,19.60
2019-06-01T06:47:54.068Z,19.70
2019-06-01T06:50:23.589Z,19.50
2019-06-01T06:52:52.219Z,19.90
2019-06-01T06:55:21.896Z,19.80
2019-06-01T06:57:50.622Z,19.00
2019-06-01T07:00:20.614Z,18.70
2019-06-01T07:02:49.387Z,19.00
2019-06-01T07:05:19.027Z,19.60
2019-06-01T07:07:47.977Z,19.50
2019-06-01T07:10:35.971Z,19.50
2019-06-01T07:13:04.770Z,18.40
2019-06-01T07:15:33.410Z,19.30
2019-06-01T07:18:02.187Z,20.00
2019-06-01T07:20:31.949Z,19.80
2019-06-01T07:23:00.518Z,20.20
2019-06-01T07:25:29.221Z,19.60
2019-06-01T07:27:57.793Z,20.00
2019-06-01T07:30:26.416Z,19.70
2019-06-01T07:32:54.934Z,19.10
2019-06-01T07:35:24.450Z,18.90
2019-06-01T07:37:53.072Z,19.10
2019-06-01T07:40:22.968Z,18.70
2019-06-01T07:42:51.820Z,19.60
2019-06-01T07:45:20.821Z,20.40
2019-06-01T07:47:49.641Z,20.60
2019-06-01T07:50:18.363Z,19.80
2019-06-01T07:52:46.914Z,20.20
2019-06-01T07:55:15.552Z,20.40
2019-06-01T07:57:44.443Z,19.90
2019-06-01T08:00:13.258Z,20.10
2019-06-01T08:02:41.775Z,20.70
2019-06-01T08:05:10.441Z,20.90
2019-06-01T08:07:38.972Z,21.10
2019-06-01T08:10:07.721Z,21.20
2019-06-01T08:12:36.356Z,21.00
2019-06-01T08:15:06.655Z,21.00
2019-06-01T08:17:35.205Z,20.30
2019-06-01T08:20:04.443Z,20.80
2019-06-01T08:22:33.211Z,20.40
2019-06-01T08:25:01.824Z,20.70
2019-06-01T08:27:30.596Z,20.20
2019-06-01T08:29:59.337Z,19.70
2019-06-01T08:32:28.709Z,20.20
2019-06-01T08:35:07.884Z,21.00
2019-06-01T08:37:27.597Z,21.80
2019-06-01T08:39:59.163Z,21.30
2019-06-01T08:42:27.393Z,21.00
2019-06-01T08:44:56.014Z,20.70
2019-06-01T08:47:25.646Z,20.60
2019-06-01T08:49:54.409Z,21.20
2019-06-01T08:52:23.876Z,21.10
2019-06-01T08:54:52.671Z,20.80
2019-06-01T08:57:22.134Z,21.50
2019-06-01T08:59:50.784Z,21.80
2019-06-01T09:02:19.359Z,22.00
2019-06-01T09:04:47.942Z,22.20
2019-06-01T09:07:16.587Z,22.10
2019-06-01T09:09:45.371Z,22.00
2019-06-01T09:12:13.955Z,22.20
2019-06-01T09:14:42.517Z,21.80
2019-06-01T09:17:11.214Z,22.20
2019-06-01T09:19:39.843Z,21.70
2019-06-01T09:22:08.433Z,22.00
2019-06-01T09:24:37.072Z,21.80
2019-06-01T09:27:05.750Z,21.70
2019-06-01T09:29:34.342Z,22.30
2019-06-01T09:32:02.844Z,22.50
2019-06-01T09:34:32.416Z,22.40
2019-06-01T09:37:01.398Z,22.80
2019-06-01T09:39:30.968Z,23.50
2019-06-01T09:41:59.636Z,23.30
2019-06-01T09:44:29.123Z,23.50
2019-06-01T09:46:57.735Z,24.20
2019-06-01T09:49:27.269Z,24.20
2019-06-01T09:52:00.184Z,24.30
2019-06-01T09:54:29.391Z,23.70
2019-06-01T09:56:58.997Z,23.50
2019-06-01T09:59:27.754Z,24.00
2019-06-01T10:01:56.293Z,24.60
2019-06-01T10:04:24.879Z,24.00
2019-06-01T10:06:53.900Z,23.70
2019-06-01T10:09:22.454Z,23.40
2019-06-01T10:11:51.166Z,23.90
2019-06-01T10:14:19.875Z,24.10
2019-06-01T10:16:48.492Z,23.80
2019-06-01T10:19:17.067Z,23.60
2019-06-01T10:21:45.680Z,23.90
2019-06-01T10:24:14.281Z,24.40
2019-06-01T10:26:42.907Z,24.30
2019-06-01T10:29:11.655Z,24.00
2019-06-01T10:31:41.636Z,24.00
2019-06-01T10:34:10.547Z,24.30
2019-06-01T10:36:40.158Z,24.20
2019-06-01T10:39:08.956Z,24.00
2019-06-01T10:41:37.768Z,24.50
2019-06-01T10:44:06.504Z,24.70
2019-06-01T10:46:35.984Z,24.80
2019-06-01T10:49:05.097Z,25.30
2019-06-01T10:51:34.037Z,25.20
2019-06-01T10:54:02.860Z,25.50
2019-06-01T10:56:32.299Z,25.60
2019-06-01T10:59:01.418Z,25.80
2019-06-01T11:01:32.453Z,26.00
2019-06-01T11:04:19.753Z,25.70
2019-06-01T11:06:49.013Z,25.30
2019-06-01T11:09:17.636Z,26.00
2019-06-01T11:11:46.348Z,25.70
2019-06-01T11:14:14.830Z,25.40
2019-06-01T11:16:44.076Z,25.80
2019-06-01T11:19:12.966Z,26.60
2019-06-01T11:21:41.802Z,26.90
2019-06-01T11:24:10.453Z,25.90
2019-06-01T11:26:39.714Z,26.20
2019-06-01T11:29:08.362Z,26.40
2019-06-01T11:31:38.281Z,26.80
2019-06-01T11:34:07.032Z,27.10
2019-06-01T11:36:36.199Z,27.90
2019-06-01T11:39:07.135Z,28.10
2019-06-01T11:41:36.386Z,28.00
2019-06-01T11:44:05.201Z,27.80
2019-06-01T11:46:34.735Z,27.40
2019-06-01T11:49:03.366Z,27.30
2019-06-01T11:51:32.054Z,27.90
2019-06-01T11:54:00.717Z,27.90
2019-06-01T11:56:29.412Z,28.00
2019-06-01T11:58:58.072Z,27.00
2019-06-01T12:01:26.604Z,27.20
2019-06-01T12:03:55.103Z,27.40
2019-06-01T12:06:23.729Z,27.60
2019-06-01T12:08:52.288Z,28.00
2019-06-01T12:11:20.789Z,26.90
2019-06-01T12:13:49.341Z,26.70
2019-06-01T12:16:17.897Z,26.70
2019-06-01T12:18:46.905Z,26.80
2019-06-01T12:21:15.546Z,27.00
2019-06-01T12:23:45.527Z,26.80
2019-06-01T12:26:14.324Z,27.00
2019-06-01T12:28:43.791Z,26.70
2019-06-01T12:31:12.520Z,26.50
2019-06-01T12:33:41.992Z,26.80
2019-06-01T12:36:10.723Z,27.30
2019-06-01T12:38:53.183Z,26.90
2019-06-01T12:41:23.012Z,26.50
2019-06-01T12:44:09.171Z,26.40
2019-06-01T12:46:41.762Z,26.40
2019-06-01T12:49:10.633Z,27.20
2019-06-01T12:51:40.602Z,26.80
2019-06-01T12:54:09.529Z,26.00
2019-06-01T12:56:38.162Z,25.70
2019-06-01T12:59:07.071Z,26.00
2019-06-01T13:01:35.682Z,26.60
2019-06-01T13:04:04.583Z,27.00
2019-06-01T13:06:33.243Z,27.30
2019-06-01T13:09:01.847Z,28.10
2019-06-01T13:11:30.473Z,28.90
2019-06-01T13:13:59.054Z,29.10
2019-06-01T13:16:27.878Z,29.70
2019-06-01T13:18:56.514Z,28.70
2019-06-01T13:21:27.618Z,29.10
2019-06-01T13:23:55.368Z,28.40
2019-06-01T13:26:25.248Z,28.00
2019-06-01T13:28:53.906Z,28.20
2019-06-01T13:31:22.461Z,27.80
2019-06-01T13:33:52.375Z,28.20
2019-06-01T13:36:21.378Z,28.60
2019-06-01T13:38:50.871Z,29.20
2019-06-01T13:41:19.496Z,28.80
2019-06-01T13:43:49.346Z,28.00
2019-06-01T13:46:18.185Z,27.90
2019-06-01T13:48:47.473Z,28.10
2019-06-01T13:51:16.192Z,26.90
2019-06-01T13:53:44.818Z,27.80
2019-06-01T13:56:13.438Z,28.40
2019-06-01T13:58:42.080Z,28.10
2019-06-01T14:01:10.725Z,28.10
2019-06-01T14:03:39.303Z,28.60
2019-06-01T14:06:07.915Z,28.60
2019-06-01T14:08:36.552Z,28.70
2019-06-01T14:11:05.276Z,29.60
2019-06-01T14:13:33.936Z,29.90
2019-06-01T14:16:02.495Z,30.00
2019-06-01T14:18:31.130Z,30.70
2019-06-01T14:20:59.974Z,29.70
2019-06-01T14:23:28.583Z,30.00
2019-06-01T14:25:57.051Z,30.30
2019-06-01T14:28:25.642Z,30.20
2019-06-01T14:30:54.371Z,30.00
2019-06-01T14:33:42.400Z,29.70
2019-06-01T14:36:11.107Z,30.00
2019-06-01T14:38:47.047Z,29.20
2019-06-01T14:41:09.963Z,28.90
2019-06-01T14:43:38.626Z,29.40
2019-06-01T14:46:07.292Z,29.80
2019-06-01T14:48:35.845Z,30.10
2019-06-01T14:51:04.481Z,30.50
2019-06-01T14:53:33.110Z,30.60
2019-06-01T14:56:01.674Z,31.00
2019-06-01T14:58:30.166Z,32.00
2019-06-01T15:00:58.901Z,32.60
2019-06-01T15:03:27.502Z,33.60
2019-06-01T15:05:56.576Z,34.40
2019-06-01T15:08:25.254Z,33.00
2019-06-01T15:10:55.279Z,32.00
2019-06-01T15:13:24.036Z,30.60
2019-06-01T15:15:53.429Z,29.00
2019-06-01T15:18:22.088Z,27.80
2019-06-01T15:20:51.679Z,29.00
2019-06-01T15:23:20.275Z,29.70
2019-06-01T15:25:50.154Z,29.80
2019-06-01T15:28:19.002Z,29.20
2019-06-01T15:30:48.285Z,29.70
2019-06-01T15:33:16.876Z,30.30
2019-06-01T15:35:45.353Z,30.70
2019-06-01T15:38:13.929Z,29.90
2019-06-01T15:40:42.682Z,29.10
2019-06-01T15:43:11.267Z,29.10
2019-06-01T15:45:41.353Z,30.30
2019-06-01T15:48:10.251Z,29.40
2019-06-01T15:50:38.878Z,29.00
2019-06-01T15:53:26.729Z,27.70
2019-06-01T15:55:56.482Z,27.80
2019-06-01T15:58:25.246Z,28.60
2019-06-01T16:00:54.939Z,28.90
2019-06-01T16:03:23.636Z,30.10
2019-06-01T16:05:53.032Z,31.20
2019-06-01T16:08:21.771Z,31.40
2019-06-01T16:10:50.391Z,31.40
2019-06-01T16:13:18.887Z,31.20
2019-06-01T16:15:47.479Z,29.70
2019-06-01T16:18:16.112Z,29.70
2019-06-01T16:20:44.762Z,29.70
2019-06-01T16:23:13.377Z,29.20
2019-06-01T16:25:42.139Z,28.60
2019-06-01T16:28:10.869Z,29.10
2019-06-01T16:30:39.560Z,30.50
2019-06-01T16:33:08.113Z,30.60
2019-06-01T16:35:36.917Z,30.20
2019-06-01T16:38:05.948Z,29.20
2019-06-01T16:40:34.694Z,29.40
2019-06-01T16:43:03.614Z,29.00
2019-06-01T16:45:32.366Z,29.20
2019-06-01T16:48:01.627Z,29.10
2019-06-01T16:50:30.390Z,28.70
2019-06-01T16:53:00.188Z,28.30
2019-06-01T16:55:31.489Z,27.80
2019-06-01T16:57:59.207Z,27.50
2019-06-01T17:00:27.724Z,28.00
2019-06-01T17:02:56.875Z,28.10
2019-06-01T17:05:25.576Z,28.50
2019-06-01T17:07:54.146Z,28.80
2019-06-01T17:10:26.547Z,28.70
2019-06-01T17:12:53.085Z,28.60
2019-06-01T17:15:21.732Z,28.10
2019-06-01T17:17:50.438Z,28.30
2019-06-01T17:20:37.327Z,28.10
2019-06-01T17:23:22.934Z,28.30
2019-06-01T17:25:36.215Z,27.40
2019-06-01T17:28:07.091Z,27.10
2019-06-01T17:30:36.021Z,27.60
2019-06-01T17:33:06.532Z,27.60
2019-06-01T17:35:36.291Z,27.60
2019-06-01T17:38:07.316Z,27.50
2019-06-01T17:40:39.681Z,27.20
2019-06-01T17:43:07.029Z,27.40
2019-06-01T17:45:36.025Z,27.70
2019-06-01T17:48:18.087Z,27.60
2019-06-01T17:50:36.192Z,28.00
2019-06-01T17:53:05.067Z,28.00
2019-06-01T17:55:38.335Z,28.10
2019-06-01T17:58:07.912Z,27.20
2019-06-01T18:00:36.883Z,27.40
2019-06-01T18:03:07.995Z,27.70
2019-06-01T18:05:37.302Z,27.90
2019-06-01T18:08:06.419Z,28.10
2019-06-01T18:10:50.232Z,28.70
2019-06-01T18:13:08.408Z,27.90
2019-06-01T18:15:37.462Z,28.40
2019-06-01T18:18:06.616Z,27.90
2019-06-01T18:20:35.982Z,27.60
2019-06-01T18:23:07.201Z,27.30
2019-06-01T18:25:35.595Z,27.80
2019-06-01T18:28:04.567Z,28.50
2019-06-01T18:30:33.536Z,29.00
2019-06-01T18:33:03.009Z,28.80
2019-06-01T18:35:32.485Z,28.00
2019-06-01T18:38:01.147Z,27.80
2019-06-01T18:40:29.706Z,28.00
2019-06-01T18:43:01.908Z,27.50
2019-06-01T18:45:30.761Z,27.00
2019-06-01T18:47:59.557Z,26.40
2019-06-01T18:50:28.413Z,26.40
2019-06-01T18:52:57.096Z,26.60
2019-06-01T18:55:27.690Z,26.80
2019-06-01T18:57:59.052Z,27.00
2019-06-01T19:00:27.740Z,26.60
2019-06-01T19:02:56.378Z,26.80
2019-06-01T19:05:25.220Z,26.80
2019-06-01T19:07:53.934Z,26.70
2019-06-01T19:10:23.008Z,26.50
2019-06-01T19:12:51.911Z,26.70
2019-06-01T19:15:28.592Z,26.80
2019-06-01T19:17:51.215Z,27.00
2019-06-01T19:20:19.863Z,27.00
2019-06-01T19:22:48.488Z,26.80
2019-06-01T19:25:17.244Z,27.00
2019-06-01T19:27:45.971Z,26.80
2019-06-01T19:30:17.143Z,26.70
2019-06-01T19:32:45.872Z,26.90
2019-06-01T19:35:15.383Z,27.30
2019-06-01T19:37:44.373Z,27.60
2019-06-01T19:40:15.525Z,27.60
2019-06-01T19:42:44.128Z,27.50
2019-06-01T19:45:24.494Z,27.40
2019-06-01T19:47:43.137Z,27.60
2019-06-01T19:50:12.181Z,27.90
2019-06-01T19:52:40.789Z,28.20
2019-06-01T19:55:10.708Z,27.90
2019-06-01T19:57:39.484Z,28.10
2019-06-01T20:00:08.291Z,28.30
2019-06-01T20:02:36.865Z,28.10
2019-06-01T20:05:06.839Z,28.20
2019-06-01T20:07:35.523Z,28.10
2019-06-01T20:10:06.631Z,28.00
2019-06-01T20:12:35.278Z,27.80
2019-06-01T20:15:05.655Z,27.80
2019-06-01T20:17:34.345Z,27.60
2019-06-01T20:20:03.385Z,27.50
2019-06-01T20:22:31.931Z,27.40
2019-06-01T20:25:00.640Z,27.30
2019-06-01T20:27:29.236Z,27.10
2019-06-01T20:29:57.834Z,26.60
2019-06-01T20:32:26.452Z,26.60
2019-06-01T20:34:56.173Z,26.50
2019-06-01T20:37:24.794Z,26.40
2019-06-01T20:39:53.292Z,26.40
2019-06-01T20:42:30.216Z,26.20
2019-06-01T20:44:52.069Z,26.20
2019-06-01T20:47:21.081Z,25.80
2019-06-01T20:49:49.772Z,25.40
2019-06-01T20:52:19.010Z,25.50
2019-06-01T20:54:47.708Z,25.00
2019-06-01T20:57:17.472Z,24.80
2019-06-01T20:59:46.228Z,24.50
2019-06-01T21:02:15.736Z,24.70
2019-06-01T21:04:44.897Z,24.80
2019-06-01T21:07:13.711Z,24.80
2019-06-01T21:09:42.478Z,24.80
2019-06-01T21:12:11.183Z,24.70
2019-06-01T21:14:41.026Z,25.00
2019-06-01T21:17:10.067Z,25.20
2019-06-01T21:19:38.752Z,25.10
2019-06-01T21:22:07.404Z,25.10
2019-06-01T21:24:36.154Z,25.10
2019-06-01T21:27:04.966Z,25.00
2019-06-01T21:29:33.849Z,24.60
2019-06-01T21:32:02.505Z,25.10
2019-06-01T21:34:31.235Z,25.00
2019-06-01T21:36:59.794Z,24.70
2019-06-01T21:39:28.427Z,24.50
2019-06-01T21:41:57.015Z,24.60
2019-06-01T21:44:25.782Z,24.40
2019-06-01T21:46:54.469Z,24.60
2019-06-01T21:49:24.118Z,24.20
2019-06-01T21:51:53.232Z,24.20
2019-06-01T21:54:22.306Z,24.10
2019-06-01T21:56:50.888Z,24.00
2019-06-01T21:59:20.509Z,24.10
2019-06-01T22:01:49.245Z,24.00
2019-06-01T22:04:18.713Z,23.60
2019-06-01T22:06:47.484Z,23.80
2019-06-01T22:09:17.159Z,24.30
2019-06-01T22:11:45.900Z,24.40
2019-06-01T22:14:14.526Z,24.60
2019-06-01T22:16:43.375Z,24.50
2019-06-01T22:19:11.960Z,24.80
2019-06-01T22:21:40.457Z,24.60
2019-06-01T22:24:08.942Z,24.40
2019-06-01T22:26:37.510Z,24.30
2019-06-01T22:29:06.144Z,24.50
2019-06-01T22:31:34.921Z,24.50
2019-06-01T22:34:03.479Z,24.00
2019-06-01T22:36:32.116Z,23.70
2019-06-01T22:39:00.709Z,23.80
2019-06-01T22:41:29.342Z,23.90
2019-06-01T22:43:58.191Z,24.00
2019-06-01T22:46:26.931Z,23.80
2019-06-01T22:48:55.825Z,24.00
2019-06-01T22:51:24.980Z,24.10
2019-06-01T22:53:53.529Z,24.40
2019-06-01T22:56:23.204Z,24.40
2019-06-01T22:58:51.933Z,24.30
2019-06-01T23:01:21.028Z,24.10
2019-06-01T23:03:49.674Z,24.40
2019-06-01T23:06:18.246Z,24.50
2019-06-01T23:08:46.862Z,24.60
2019-06-01T23:11:15.503Z,24.70
2019-06-01T23:13:53.156Z,24.50
2019-06-01T23:16:14.271Z,24.10
2019-06-01T23:18:42.961Z,24.40
2019-06-01T23:21:11.522Z,24.80
2019-06-01T23:23:40.083Z,24.90
2019-06-01T23:26:08.733Z,24.70
2019-06-01T23:28:38.745Z,24.60
2019-06-01T23:31:07.611Z,24.80
2019-06-01T23:33:36.195Z,24.80
2019-06-01T23:36:04.896Z,24.50
2019-06-01T23:38:33.514Z,24.10
2019-06-01T23:41:02.086Z,24.40
2019-06-01T23:43:30.977Z,24.50
2019-06-01T23:45:59.602Z,24.60
2019-06-01T23:48:29.316Z,24.40
2019-06-01T23:50:57.944Z,24.40
2019-06-01T23:53:27.491Z,24.50
2019-06-01T23:55:56.201Z,24.30
2019-06-01T23:58:25.913Z,24.20
